sensor_id;sensor_type;location;lat;lon;timestamp;pressure;altitude;pressure_sealevel;temperature;humidity
34696;BME280;20918;51.138;17.370;2023-05-19T00:04:42;101249.30;;;9.13;72.83
34696;BME280;20918;51.138;17.370;2023-05-19T00:07:50;101248.05;;;9.11;72.97
34696;BME280;20918;51.138;17.370;2023-05-19T00:10:57;101244.35;;;9.09;73.25
34696;BME280;20918;51.138;17.370;2023-05-19T00:14:23;101242.93;;;9.08;73.24
34696;BME280;20918;51.138;17.370;2023-05-19T00:21:43;101240.17;;;9.05;73.37
34696;BME280;20918;51.138;17.370;2023-05-19T00:24:57;101238.72;;;9.03;73.57
34696;BME280;20918;51.138;17.370;2023-05-19T00:28:51;101239.42;;;9.01;73.65
34696;BME280;20918;51.138;17.370;2023-05-19T00:32:00;101235.71;;;8.98;73.85
34696;BME280;20918;51.138;17.370;2023-05-19T00:39:09;101230.48;;;8.97;73.95
34696;BME280;20918;51.138;17.370;2023-05-19T00:42:55;101231.27;;;8.94;74.10
34696;BME280;20918;51.138;17.370;2023-05-19T00:46:02;101233.16;;;8.93;74.26
34696;BME280;20918;51.138;17.370;2023-05-19T00:49:55;101230.40;;;8.92;74.32
34696;BME280;20918;51.138;17.370;2023-05-19T00:57:46;101237.16;;;8.83;74.58
34696;BME280;20918;51.138;17.370;2023-05-19T01:06:03;101242.80;;;8.64;74.98
34696;BME280;20918;51.138;17.370;2023-05-19T01:09:27;101241.83;;;8.57;75.34
34696;BME280;20918;51.138;17.370;2023-05-19T01:12:43;101242.12;;;8.53;75.43
34696;BME280;20918;51.138;17.370;2023-05-19T01:19:50;101238.52;;;8.50;75.76
34696;BME280;20918;51.138;17.370;2023-05-19T01:23:46;101239.45;;;8.47;75.85
34696;BME280;20918;51.138;17.370;2023-05-19T01:31:14;101239.09;;;8.47;75.99
34696;BME280;20918;51.138;17.370;2023-05-19T01:34:44;101236.39;;;8.50;76.11
34696;BME280;20918;51.138;17.370;2023-05-19T01:45:04;101231.36;;;8.53;76.67
34696;BME280;20918;51.138;17.370;2023-05-19T01:52:02;101237.96;;;8.52;77.11
34696;BME280;20918;51.138;17.370;2023-05-19T01:55:28;101235.55;;;8.54;77.22
34696;BME280;20918;51.138;17.370;2023-05-19T01:58:57;101236.45;;;8.56;77.45
34696;BME280;20918;51.138;17.370;2023-05-19T02:06:50;101229.98;;;8.57;77.50
34696;BME280;20918;51.138;17.370;2023-05-19T02:10:05;101225.34;;;8.60;77.76
34696;BME280;20918;51.138;17.370;2023-05-19T02:13:36;101225.55;;;8.62;77.68
34696;BME280;20918;51.138;17.370;2023-05-19T02:17:08;101224.03;;;8.65;77.81
34696;BME280;20918;51.138;17.370;2023-05-19T02:24:37;101223.25;;;8.70;77.85
34696;BME280;20918;51.138;17.370;2023-05-19T02:28:38;101222.35;;;8.66;77.98
34696;BME280;20918;51.138;17.370;2023-05-19T02:31:47;101222.23;;;8.66;78.03
34696;BME280;20918;51.138;17.370;2023-05-19T02:35:19;101220.04;;;8.66;78.11
34696;BME280;20918;51.138;17.370;2023-05-19T02:38:38;101220.52;;;8.69;78.31
34696;BME280;20918;51.138;17.370;2023-05-19T02:46:26;101212.80;;;8.67;78.29
34696;BME280;20918;51.138;17.370;2023-05-19T02:57:28;101209.70;;;8.70;78.67
34696;BME280;20918;51.138;17.370;2023-05-19T03:01:17;101206.63;;;8.71;78.57
34696;BME280;20918;51.138;17.370;2023-05-19T03:04:18;101202.59;;;8.64;78.72
34696;BME280;20918;51.138;17.370;2023-05-19T03:07:30;101203.42;;;8.67;78.96
34696;BME280;20918;51.138;17.370;2023-05-19T03:11:04;101202.92;;;8.73;79.05
34696;BME280;20918;51.138;17.370;2023-05-19T03:14:50;101199.98;;;8.77;79.09
34696;BME280;20918;51.138;17.370;2023-05-19T03:22:02;101202.05;;;8.72;79.13
34696;BME280;20918;51.138;17.370;2023-05-19T03:25:01;101201.27;;;8.71;79.37
34696;BME280;20918;51.138;17.370;2023-05-19T03:28:22;101200.02;;;8.66;79.42
34696;BME280;20918;51.138;17.370;2023-05-19T03:31:49;101201.42;;;8.57;79.87
34696;BME280;20918;51.138;17.370;2023-05-19T03:35:14;101208.98;;;8.51;80.21
34696;BME280;20918;51.138;17.370;2023-05-19T03:38:30;101206.11;;;8.49;80.31
34696;BME280;20918;51.138;17.370;2023-05-19T03:42:04;101211.65;;;8.48;80.78
34696;BME280;20918;51.138;17.370;2023-05-19T03:45:29;101213.65;;;8.48;80.92
34696;BME280;20918;51.138;17.370;2023-05-19T03:53:29;101216.63;;;8.65;80.95
34696;BME280;20918;51.138;17.370;2023-05-19T03:56:46;101218.73;;;8.74;80.87
34696;BME280;20918;51.138;17.370;2023-05-19T03:59:50;101217.09;;;8.83;80.92
34696;BME280;20918;51.138;17.370;2023-05-19T04:03:08;101218.69;;;8.87;80.59
34696;BME280;20918;51.138;17.370;2023-05-19T04:06:34;101215.22;;;8.92;80.62
34696;BME280;20918;51.138;17.370;2023-05-19T04:09:41;101216.30;;;8.98;80.50
34696;BME280;20918;51.138;17.370;2023-05-19T04:12:42;101212.34;;;9.06;80.59
34696;BME280;20918;51.138;17.370;2023-05-19T04:16:01;101214.65;;;9.14;80.36
34696;BME280;20918;51.138;17.370;2023-05-19T04:19:11;101215.86;;;9.18;80.41
34696;BME280;20918;51.138;17.370;2023-05-19T04:22:15;101217.66;;;9.24;80.31
34696;BME280;20918;51.138;17.370;2023-05-19T04:25:20;101219.69;;;9.25;80.03
34696;BME280;20918;51.138;17.370;2023-05-19T04:29:09;101220.03;;;9.25;80.00
34696;BME280;20918;51.138;17.370;2023-05-19T04:32:13;101217.28;;;9.27;80.09
34696;BME280;20918;51.138;17.370;2023-05-19T04:35:22;101220.22;;;9.27;79.88
34696;BME280;20918;51.138;17.370;2023-05-19T04:38:29;101219.74;;;9.29;79.96
34696;BME280;20918;51.138;17.370;2023-05-19T04:45:24;101221.54;;;9.28;80.12
34696;BME280;20918;51.138;17.370;2023-05-19T04:48:35;101220.52;;;9.32;80.48
34696;BME280;20918;51.138;17.370;2023-05-19T05:00:01;101211.32;;;9.43;80.29
34696;BME280;20918;51.138;17.370;2023-05-19T05:03:54;101208.98;;;9.49;80.51
34696;BME280;20918;51.138;17.370;2023-05-19T05:11:39;101218.39;;;9.53;80.56
34696;BME280;20918;51.138;17.370;2023-05-19T05:15:09;101218.00;;;9.63;80.88
34696;BME280;20918;51.138;17.370;2023-05-19T05:18:13;101218.05;;;9.67;80.75
34696;BME280;20918;51.138;17.370;2023-05-19T05:25:03;101227.70;;;9.80;80.59
34696;BME280;20918;51.138;17.370;2023-05-19T05:28:24;101225.95;;;9.83;80.52
34696;BME280;20918;51.138;17.370;2023-05-19T05:31:29;101230.45;;;9.84;80.23
34696;BME280;20918;51.138;17.370;2023-05-19T05:34:37;101230.44;;;9.82;80.35
34696;BME280;20918;51.138;17.370;2023-05-19T05:41:58;101232.79;;;9.76;80.19
34696;BME280;20918;51.138;17.370;2023-05-19T05:45:07;101232.04;;;9.75;80.30
34696;BME280;20918;51.138;17.370;2023-05-19T05:48:44;101234.34;;;9.74;80.57
34696;BME280;20918;51.138;17.370;2023-05-19T05:52:06;101238.85;;;9.79;80.73
34696;BME280;20918;51.138;17.370;2023-05-19T05:55:37;101235.59;;;9.82;80.53
34696;BME280;20918;51.138;17.370;2023-05-19T06:02:01;101234.09;;;9.83;80.55
34696;BME280;20918;51.138;17.370;2023-05-19T06:05:03;101243.29;;;9.85;80.62
34696;BME280;20918;51.138;17.370;2023-05-19T06:12:51;101240.01;;;9.96;80.85
34696;BME280;20918;51.138;17.370;2023-05-19T06:16:38;101240.77;;;10.00;80.81
34696;BME280;20918;51.138;17.370;2023-05-19T06:20:18;101238.89;;;10.03;80.63
34696;BME280;20918;51.138;17.370;2023-05-19T06:23:22;101244.77;;;10.08;80.58
34696;BME280;20918;51.138;17.370;2023-05-19T06:38:12;101255.70;;;10.17;80.33
34696;BME280;20918;51.138;17.370;2023-05-19T06:53:54;101254.20;;;10.08;80.11
34696;BME280;20918;51.138;17.370;2023-05-19T06:57:01;101256.55;;;10.05;79.96
34696;BME280;20918;51.138;17.370;2023-05-19T07:00:38;101257.90;;;10.06;80.14
34696;BME280;20918;51.138;17.370;2023-05-19T07:07:38;101260.36;;;10.14;79.98
34696;BME280;20918;51.138;17.370;2023-05-19T07:11:05;101265.30;;;10.14;79.99
34696;BME280;20918;51.138;17.370;2023-05-19T07:14:42;101262.48;;;10.14;79.60
34696;BME280;20918;51.138;17.370;2023-05-19T07:17:57;101264.86;;;10.11;79.69
34696;BME280;20918;51.138;17.370;2023-05-19T07:25:01;101261.64;;;10.14;79.71
34696;BME280;20918;51.138;17.370;2023-05-19T07:28:19;101262.27;;;10.19;79.58
34696;BME280;20918;51.138;17.370;2023-05-19T07:31:24;101259.63;;;10.24;79.32
34696;BME280;20918;51.138;17.370;2023-05-19T07:34:41;101263.55;;;10.24;79.31
34696;BME280;20918;51.138;17.370;2023-05-19T07:38:01;101262.89;;;10.25;79.33
34696;BME280;20918;51.138;17.370;2023-05-19T07:41:07;101262.90;;;10.30;79.55
34696;BME280;20918;51.138;17.370;2023-05-19T07:44:11;101267.11;;;10.40;79.77
34696;BME280;20918;51.138;17.370;2023-05-19T07:47:12;101264.70;;;10.45;79.61
34696;BME280;20918;51.138;17.370;2023-05-19T07:50:59;101266.11;;;10.51;79.72
34696;BME280;20918;51.138;17.370;2023-05-19T07:54:02;101266.25;;;10.51;79.46
34696;BME280;20918;51.138;17.370;2023-05-19T07:57:09;101262.60;;;10.57;79.72
34696;BME280;20918;51.138;17.370;2023-05-19T08:07:55;101265.52;;;10.79;79.88
34696;BME280;20918;51.138;17.370;2023-05-19T08:11:04;101264.86;;;10.76;79.80
34696;BME280;20918;51.138;17.370;2023-05-19T08:17:57;101263.18;;;10.66;79.95
34696;BME280;20918;51.138;17.370;2023-05-19T08:21:15;101263.55;;;10.69;80.20
34696;BME280;20918;51.138;17.370;2023-05-19T08:24:40;101263.55;;;10.73;80.24
34696;BME280;20918;51.138;17.370;2023-05-19T08:28:48;101262.14;;;10.77;79.74
34696;BME280;20918;51.138;17.370;2023-05-19T08:32:30;101254.52;;;10.83;79.67
34696;BME280;20918;51.138;17.370;2023-05-19T08:44:22;101253.40;;;11.11;79.35
34696;BME280;20918;51.138;17.370;2023-05-19T08:48:02;101250.86;;;11.19;78.74
34696;BME280;20918;51.138;17.370;2023-05-19T08:51:42;101247.77;;;11.29;78.65
34696;BME280;20918;51.138;17.370;2023-05-19T08:55:11;101251.88;;;11.36;77.97
34696;BME280;20918;51.138;17.370;2023-05-19T08:58:50;101250.39;;;11.41;77.81
34696;BME280;20918;51.138;17.370;2023-05-19T09:02:31;101249.58;;;11.42;77.45
34696;BME280;20918;51.138;17.370;2023-05-19T09:06:08;101247.88;;;11.43;77.34
34696;BME280;20918;51.138;17.370;2023-05-19T09:10:04;101245.98;;;11.46;77.46
34696;BME280;20918;51.138;17.370;2023-05-19T09:13:57;101241.49;;;11.49;77.38
34696;BME280;20918;51.138;17.370;2023-05-19T09:17:32;101235.78;;;11.58;77.68
34696;BME280;20918;51.138;17.370;2023-05-19T09:20:38;101241.45;;;11.60;76.94
34696;BME280;20918;51.138;17.370;2023-05-19T09:28:58;101239.60;;;11.63;76.93
34696;BME280;20918;51.138;17.370;2023-05-19T09:36:40;101239.21;;;11.75;76.46
34696;BME280;20918;51.138;17.370;2023-05-19T09:39:55;101238.23;;;11.76;76.20
34696;BME280;20918;51.138;17.370;2023-05-19T09:47:41;101235.97;;;11.75;76.15
34696;BME280;20918;51.138;17.370;2023-05-19T09:51:01;101233.27;;;11.83;76.09
34696;BME280;20918;51.138;17.370;2023-05-19T09:54:25;101229.39;;;11.95;75.91
34696;BME280;20918;51.138;17.370;2023-05-19T10:02:15;101221.61;;;11.98;74.98
34696;BME280;20918;51.138;17.370;2023-05-19T10:10:49;101210.11;;;12.17;75.64
34696;BME280;20918;51.138;17.370;2023-05-19T10:27:21;101202.10;;;12.07;74.51
34696;BME280;20918;51.138;17.370;2023-05-19T10:30:34;101205.20;;;12.02;74.69
34696;BME280;20918;51.138;17.370;2023-05-19T10:46:10;101200.04;;;12.08;74.96
34696;BME280;20918;51.138;17.370;2023-05-19T10:53:39;101205.08;;;11.91;75.00
34696;BME280;20918;51.138;17.370;2023-05-19T10:57:52;101208.86;;;11.84;75.45
34696;BME280;20918;51.138;17.370;2023-05-19T11:01:41;101210.67;;;11.79;75.21
34696;BME280;20918;51.138;17.370;2023-05-19T11:09:01;101210.14;;;11.73;75.69
34696;BME280;20918;51.138;17.370;2023-05-19T11:12:27;101212.84;;;11.73;75.80
34696;BME280;20918;51.138;17.370;2023-05-19T11:15:51;101214.36;;;11.70;75.88
34696;BME280;20918;51.138;17.370;2023-05-19T11:19:57;101210.03;;;11.66;75.96
34696;BME280;20918;51.138;17.370;2023-05-19T11:23:24;101205.73;;;11.74;76.19
34696;BME280;20918;51.138;17.370;2023-05-19T11:30:37;101204.44;;;11.88;76.13
34696;BME280;20918;51.138;17.370;2023-05-19T11:34:06;101202.92;;;11.83;75.92
34696;BME280;20918;51.138;17.370;2023-05-19T11:37:24;101206.71;;;11.81;75.97
34696;BME280;20918;51.138;17.370;2023-05-19T11:40:33;101205.20;;;11.78;76.06
34696;BME280;20918;51.138;17.370;2023-05-19T11:43:37;101203.42;;;11.78;76.23
34696;BME280;20918;51.138;17.370;2023-05-19T11:46:42;101204.92;;;11.78;76.55
34696;BME280;20918;51.138;17.370;2023-05-19T11:58:03;101208.39;;;11.93;76.51
34696;BME280;20918;51.138;17.370;2023-05-19T12:06:19;101202.95;;;11.78;76.75
34696;BME280;20918;51.138;17.370;2023-05-19T12:14:20;101205.03;;;11.85;76.97
34696;BME280;20918;51.138;17.370;2023-05-19T12:25:50;101196.13;;;12.08;77.08
34696;BME280;20918;51.138;17.370;2023-05-19T12:29:27;101200.39;;;12.06;76.80
34696;BME280;20918;51.138;17.370;2023-05-19T12:32:33;101200.23;;;12.04;76.49
34696;BME280;20918;51.138;17.370;2023-05-19T12:36:19;101201.83;;;12.01;76.78
34696;BME280;20918;51.138;17.370;2023-05-19T12:39:40;101201.83;;;12.04;76.65
34696;BME280;20918;51.138;17.370;2023-05-19T12:43:23;101202.27;;;12.07;76.71
34696;BME280;20918;51.138;17.370;2023-05-19T12:46:50;101195.55;;;12.18;76.92
34696;BME280;20918;51.138;17.370;2023-05-19T12:54:15;101196.91;;;12.34;76.62
34696;BME280;20918;51.138;17.370;2023-05-19T12:58:04;101197.77;;;12.37;76.43
34696;BME280;20918;51.138;17.370;2023-05-19T13:05:52;101194.34;;;12.30;75.96
34696;BME280;20918;51.138;17.370;2023-05-19T13:13:51;101189.82;;;12.24;76.50
34696;BME280;20918;51.138;17.370;2023-05-19T13:24:47;101196.44;;;12.01;76.60
34696;BME280;20918;51.138;17.370;2023-05-19T13:36:37;101195.51;;;12.03;76.64
34696;BME280;20918;51.138;17.370;2023-05-19T13:40:22;101197.52;;;12.03;76.84
34696;BME280;20918;51.138;17.370;2023-05-19T13:51:54;101185.27;;;12.06;76.76
34696;BME280;20918;51.138;17.370;2023-05-19T14:03:17;101184.34;;;12.25;76.80
34696;BME280;20918;51.138;17.370;2023-05-19T14:06:35;101186.61;;;12.27;76.72
34696;BME280;20918;51.138;17.370;2023-05-19T14:10:06;101182.55;;;12.29;76.62
34696;BME280;20918;51.138;17.370;2023-05-19T14:14:20;101184.47;;;12.35;76.65
34696;BME280;20918;51.138;17.370;2023-05-19T14:21:52;101186.34;;;12.46;76.72
34696;BME280;20918;51.138;17.370;2023-05-19T14:49:34;101174.48;;;12.60;76.45
34696;BME280;20918;51.138;17.370;2023-05-19T14:53:35;101177.98;;;12.66;76.23
34696;BME280;20918;51.138;17.370;2023-05-19T14:57:30;101180.80;;;12.66;76.08
34696;BME280;20918;51.138;17.370;2023-05-19T15:00:59;101178.03;;;12.69;75.93
34696;BME280;20918;51.138;17.370;2023-05-19T15:08:47;101179.20;;;12.69;75.67
34696;BME280;20918;51.138;17.370;2023-05-19T15:16:51;101176.09;;;12.76;75.78
34696;BME280;20918;51.138;17.370;2023-05-19T15:20:39;101176.54;;;12.78;75.71
34696;BME280;20918;51.138;17.370;2023-05-19T15:24:12;101181.72;;;12.80;75.75
34696;BME280;20918;51.138;17.370;2023-05-19T15:35:55;101172.48;;;12.87;75.84
34696;BME280;20918;51.138;17.370;2023-05-19T15:40:00;101169.62;;;12.89;75.73
34696;BME280;20918;51.138;17.370;2023-05-19T15:59:49;101157.19;;;12.90;75.36
34696;BME280;20918;51.138;17.370;2023-05-19T16:07:03;101161.13;;;12.83;75.23
34696;BME280;20918;51.138;17.370;2023-05-19T16:10:19;101158.32;;;12.81;75.34
34696;BME280;20918;51.138;17.370;2023-05-19T16:21:25;101159.53;;;12.83;75.61
34696;BME280;20918;51.138;17.370;2023-05-19T16:44:00;101157.63;;;12.60;76.14
34696;BME280;20918;51.138;17.370;2023-05-19T16:47:35;101159.27;;;12.60;76.28
34696;BME280;20918;51.138;17.370;2023-05-19T16:58:48;101153.40;;;12.51;76.71
34696;BME280;20918;51.138;17.370;2023-05-19T17:01:58;101150.75;;;12.49;76.75
34696;BME280;20918;51.138;17.370;2023-05-19T17:05:24;101154.72;;;12.45;76.86
34696;BME280;20918;51.138;17.370;2023-05-19T17:09:01;101154.77;;;12.42;76.97
34696;BME280;20918;51.138;17.370;2023-05-19T17:12:10;101153.61;;;12.40;77.19
34696;BME280;20918;51.138;17.370;2023-05-19T17:15:32;101154.83;;;12.38;77.25
34696;BME280;20918;51.138;17.370;2023-05-19T17:18:56;101152.83;;;12.37;77.48
34696;BME280;20918;51.138;17.370;2023-05-19T17:22:00;101151.08;;;12.37;77.43
34696;BME280;20918;51.138;17.370;2023-05-19T17:25:21;101153.27;;;12.34;77.46
34696;BME280;20918;51.138;17.370;2023-05-19T17:28:28;101153.33;;;12.34;77.44
34696;BME280;20918;51.138;17.370;2023-05-19T17:31:28;101154.02;;;12.34;77.39
34696;BME280;20918;51.138;17.370;2023-05-19T17:34:40;101154.64;;;12.33;77.42
34696;BME280;20918;51.138;17.370;2023-05-19T17:38:21;101159.55;;;12.32;77.53
34696;BME280;20918;51.138;17.370;2023-05-19T17:53:18;101172.85;;;12.30;77.69
34696;BME280;20918;51.138;17.370;2023-05-19T18:04:19;101167.03;;;12.24;77.94
34696;BME280;20918;51.138;17.370;2023-05-19T18:07:52;101168.90;;;12.20;78.09
34696;BME280;20918;51.138;17.370;2023-05-19T18:11:45;101166.76;;;12.18;78.24
34696;BME280;20918;51.138;17.370;2023-05-19T18:27:28;101163.67;;;12.03;78.96
34696;BME280;20918;51.138;17.370;2023-05-19T18:30:56;101163.73;;;12.02;78.91
34696;BME280;20918;51.138;17.370;2023-05-19T18:34:47;101163.85;;;12.01;79.32
34696;BME280;20918;51.138;17.370;2023-05-19T18:38:17;101164.33;;;11.98;79.46
34696;BME280;20918;51.138;17.370;2023-05-19T18:41:42;101167.20;;;11.96;79.76
34696;BME280;20918;51.138;17.370;2023-05-19T18:48:59;101170.36;;;11.96;79.69
34696;BME280;20918;51.138;17.370;2023-05-19T18:52:19;101169.40;;;11.97;80.09
34696;BME280;20918;51.138;17.370;2023-05-19T19:03:45;101182.17;;;11.95;80.13
34696;BME280;20918;51.138;17.370;2023-05-19T19:07:10;101184.55;;;11.92;80.16
34696;BME280;20918;51.138;17.370;2023-05-19T19:10:51;101188.08;;;11.91;80.27
34696;BME280;20918;51.138;17.370;2023-05-19T19:18:44;101196.69;;;11.86;80.42
34696;BME280;20918;51.138;17.370;2023-05-19T19:22:01;101199.11;;;11.84;80.33
34696;BME280;20918;51.138;17.370;2023-05-19T19:25:12;101200.55;;;11.84;80.46
34696;BME280;20918;51.138;17.370;2023-05-19T19:28:26;101199.40;;;11.83;80.56
34696;BME280;20918;51.138;17.370;2023-05-19T19:31:36;101204.23;;;11.82;80.58
34696;BME280;20918;51.138;17.370;2023-05-19T19:34:45;101203.80;;;11.82;80.74
34696;BME280;20918;51.138;17.370;2023-05-19T19:37:59;101205.91;;;11.82;80.73
34696;BME280;20918;51.138;17.370;2023-05-19T19:41:17;101203.06;;;11.82;80.68
34696;BME280;20918;51.138;17.370;2023-05-19T19:44:19;101201.33;;;11.81;80.87
34696;BME280;20918;51.138;17.370;2023-05-19T19:47:25;101205.45;;;11.80;80.82
34696;BME280;20918;51.138;17.370;2023-05-19T19:50:26;101206.56;;;11.79;80.86
34696;BME280;20918;51.138;17.370;2023-05-19T19:53:27;101207.96;;;11.79;81.01
34696;BME280;20918;51.138;17.370;2023-05-19T19:56:36;101210.55;;;11.78;81.19
34696;BME280;20918;51.138;17.370;2023-05-19T19:59:41;101212.05;;;11.77;81.14
34696;BME280;20918;51.138;17.370;2023-05-19T20:02:44;101210.80;;;11.77;81.04
34696;BME280;20918;51.138;17.370;2023-05-19T20:05:54;101213.07;;;11.78;81.24
34696;BME280;20918;51.138;17.370;2023-05-19T20:08:56;101211.48;;;11.76;81.41
34696;BME280;20918;51.138;17.370;2023-05-19T20:12:00;101211.48;;;11.74;81.25
34696;BME280;20918;51.138;17.370;2023-05-19T20:15:01;101215.67;;;11.71;81.66
34696;BME280;20918;51.138;17.370;2023-05-19T20:18:02;101212.94;;;11.68;81.89
34696;BME280;20918;51.138;17.370;2023-05-19T20:21:03;101205.81;;;11.64;81.76
34696;BME280;20918;51.138;17.370;2023-05-19T20:24:12;101209.86;;;11.63;81.83
34696;BME280;20918;51.138;17.370;2023-05-19T20:27:16;101208.64;;;11.61;81.95
34696;BME280;20918;51.138;17.370;2023-05-19T20:30:33;101214.27;;;11.59;82.06
34696;BME280;20918;51.138;17.370;2023-05-19T20:33:36;101214.63;;;11.59;81.96
34696;BME280;20918;51.138;17.370;2023-05-19T20:36:42;101210.83;;;11.60;82.26
34696;BME280;20918;51.138;17.370;2023-05-19T20:39:55;101212.36;;;11.61;82.17
34696;BME280;20918;51.138;17.370;2023-05-19T20:43:05;101213.01;;;11.60;82.15
34696;BME280;20918;51.138;17.370;2023-05-19T20:50:23;101217.58;;;11.58;82.53
34696;BME280;20918;51.138;17.370;2023-05-19T20:53:45;101218.54;;;11.55;82.59
34696;BME280;20918;51.138;17.370;2023-05-19T21:02:02;101207.14;;;11.51;82.86
34696;BME280;20918;51.138;17.370;2023-05-19T21:05:07;101207.86;;;11.50;83.07
34696;BME280;20918;51.138;17.370;2023-05-19T21:15:41;101202.45;;;11.44;83.30
34696;BME280;20918;51.138;17.370;2023-05-19T21:18:51;101206.48;;;11.42;83.51
34696;BME280;20918;51.138;17.370;2023-05-19T21:25:52;101212.09;;;11.39;83.71
34696;BME280;20918;51.138;17.370;2023-05-19T21:29:33;101210.01;;;11.37;83.97
34696;BME280;20918;51.138;17.370;2023-05-19T21:33:24;101212.68;;;11.35;84.10
34696;BME280;20918;51.138;17.370;2023-05-19T21:36:33;101210.64;;;11.34;84.09
34696;BME280;20918;51.138;17.370;2023-05-19T21:39:41;101212.85;;;11.33;84.17
34696;BME280;20918;51.138;17.370;2023-05-19T21:43:02;101210.33;;;11.34;84.39
34696;BME280;20918;51.138;17.370;2023-05-19T21:46:56;101206.50;;;11.33;84.42
34696;BME280;20918;51.138;17.370;2023-05-19T21:50:18;101208.67;;;11.33;84.38
34696;BME280;20918;51.138;17.370;2023-05-19T21:53:30;101212.19;;;11.33;84.50
34696;BME280;20918;51.138;17.370;2023-05-19T22:00:39;101205.90;;;11.32;84.66
34696;BME280;20918;51.138;17.370;2023-05-19T22:04:05;101201.02;;;11.31;84.69
34696;BME280;20918;51.138;17.370;2023-05-19T22:07:29;101197.73;;;11.30;84.77
34696;BME280;20918;51.138;17.370;2023-05-19T22:10:38;101196.84;;;11.30;84.93
34696;BME280;20918;51.138;17.370;2023-05-19T22:13:49;101198.77;;;11.31;84.97
34696;BME280;20918;51.138;17.370;2023-05-19T22:17:27;101198.38;;;11.31;84.95
34696;BME280;20918;51.138;17.370;2023-05-19T22:20:41;101199.70;;;11.30;85.37
34696;BME280;20918;51.138;17.370;2023-05-19T22:28:03;101197.77;;;11.28;85.38
34696;BME280;20918;51.138;17.370;2023-05-19T22:39:23;101187.64;;;11.28;85.47
34696;BME280;20918;51.138;17.370;2023-05-19T22:42:51;101184.06;;;11.29;85.69
34696;BME280;20918;51.138;17.370;2023-05-19T22:46:30;101181.27;;;11.27;85.68
34696;BME280;20918;51.138;17.370;2023-05-19T22:50:11;101179.19;;;11.26;85.78
34696;BME280;20918;51.138;17.370;2023-05-19T22:57:37;101175.36;;;11.21;86.19
34696;BME280;20918;51.138;17.370;2023-05-19T23:01:24;101178.76;;;11.17;86.42
34696;BME280;20918;51.138;17.370;2023-05-19T23:04:25;101178.42;;;11.15;86.63
34696;BME280;20918;51.138;17.370;2023-05-19T23:07:35;101177.69;;;11.14;86.46
34696;BME280;20918;51.138;17.370;2023-05-19T23:10:37;101180.54;;;11.13;86.52
34696;BME280;20918;51.138;17.370;2023-05-19T23:13:47;101181.83;;;11.14;86.46
34696;BME280;20918;51.138;17.370;2023-05-19T23:17:10;101182.29;;;11.15;86.48
34696;BME280;20918;51.138;17.370;2023-05-19T23:20:12;101184.98;;;11.17;86.52
34696;BME280;20918;51.138;17.370;2023-05-19T23:23:32;101184.58;;;11.17;86.60
34696;BME280;20918;51.138;17.370;2023-05-19T23:26:46;101183.95;;;11.18;86.52
34696;BME280;20918;51.138;17.370;2023-05-19T23:29:47;101184.80;;;11.19;86.41
34696;BME280;20918;51.138;17.370;2023-05-19T23:32:48;101180.48;;;11.17;86.52
34696;BME280;20918;51.138;17.370;2023-05-19T23:39:28;101182.64;;;11.17;86.62
34696;BME280;20918;51.138;17.370;2023-05-19T23:42:34;101180.70;;;11.17;86.32
34696;BME280;20918;51.138;17.370;2023-05-19T23:45:50;101168.80;;;11.17;86.31
34696;BME280;20918;51.138;17.370;2023-05-19T23:49:04;101168.62;;;11.18;86.15
34696;BME280;20918;51.138;17.370;2023-05-19T23:52:08;101161.36;;;11.17;86.08
34696;BME280;20918;51.138;17.370;2023-05-19T23:55:16;101161.71;;;11.18;86.27
34696;BME280;20918;51.138;17.370;2023-05-19T23:58:17;101154.29;;;11.17;86.16
